LAN003 SCIE-SCEL
Flight info
| Callsign | LAN003 |
|---|---|
| Flight time | 0h 48m |
| Altitude | 30000 |
| Route | LODOS4N LODOS UQ808 EROLO EROLO8A |
| Aircraft | A320/M-SDE3FGHIRWY/LB1 |
Departure
| Time | 2026-04-26 01:14 |
|---|---|
| Airport | Carriel Sur International Airport (SCIE) |
Arrival
| Time | 2026-04-26 02:02 |
|---|---|
| Airport | Comodoro Arturo Merino Benítez International Airport (SCEL) |
| Time | Latitude | Longitude | Altitude | Speed | Heading |
|---|---|---|---|---|---|
| 2026-04-26 00:17 | -36.77607 | -73.05943 | 54 ft | 0 kts | 191° |
| 2026-04-26 01:00 | -36.77599 | -73.05941 | 52 ft | 2 kts | 191° |
| 2026-04-26 01:00 | -36.77582 | -73.05937 | 52 ft | 2 kts | 191° |
| 2026-04-26 01:00 | -36.77565 | -73.05934 | 57 ft | 2 kts | 197° |
| 2026-04-26 01:01 | -36.77552 | -73.05921 | 58 ft | 2 kts | 268° |
| 2026-04-26 01:01 | -36.77552 | -73.05916 | 58 ft | 0 kts | 282° |
| 2026-04-26 01:05 | -36.77550 | -73.05921 | 59 ft | 4 kts | 291° |
| 2026-04-26 01:05 | -36.77540 | -73.05973 | 55 ft | 6 kts | 281° |
| 2026-04-26 01:05 | -36.77537 | -73.06016 | 60 ft | 5 kts | 273° |
| 2026-04-26 01:06 | -36.77533 | -73.06068 | 60 ft | 6 kts | 278° |
| 2026-04-26 01:06 | -36.77525 | -73.06100 | 56 ft | 3 kts | 288° |
| 2026-04-26 01:06 | -36.77512 | -73.06141 | 60 ft | 8 kts | 292° |
| 2026-04-26 01:06 | -36.77474 | -73.06184 | 59 ft | 7 kts | 345° |
| 2026-04-26 01:07 | -36.77435 | -73.06174 | 56 ft | 5 kts | 22° |
| 2026-04-26 01:07 | -36.77381 | -73.06145 | 54 ft | 12 kts | 24° |
| 2026-04-26 01:07 | -36.77283 | -73.06087 | 52 ft | 19 kts | 25° |
| 2026-04-26 01:07 | -36.77143 | -73.06005 | 57 ft | 26 kts | 25° |
| 2026-04-26 01:08 | -36.76986 | -73.05921 | 59 ft | 22 kts | 24° |
| 2026-04-26 01:08 | -36.76828 | -73.05821 | 60 ft | 28 kts | 25° |
| 2026-04-26 01:08 | -36.76711 | -73.05754 | 52 ft | 15 kts | 25° |
| 2026-04-26 01:08 | -36.76596 | -73.05687 | 56 ft | 21 kts | 25° |
| 2026-04-26 01:09 | -36.76465 | -73.05609 | 57 ft | 11 kts | 24° |
| 2026-04-26 01:09 | -36.76400 | -73.05588 | 58 ft | 9 kts | 356° |
| 2026-04-26 01:09 | -36.76358 | -73.05621 | 57 ft | 6 kts | 313° |
| 2026-04-26 01:09 | -36.76350 | -73.05634 | 58 ft | 0 kts | 306° |
| 2026-04-26 01:11 | -36.76342 | -73.05648 | 57 ft | 3 kts | 304° |
| 2026-04-26 01:11 | -36.76333 | -73.05666 | 58 ft | 6 kts | 300° |
| 2026-04-26 01:11 | -36.76306 | -73.05706 | 59 ft | 3 kts | 326° |
| 2026-04-26 01:11 | -36.76242 | -73.05714 | 65 ft | 16 kts | 4° |
| 2026-04-26 01:12 | -36.76159 | -73.05640 | 61 ft | 11 kts | 64° |
| 2026-04-26 01:12 | -36.76124 | -73.05644 | 59 ft | 5 kts | 297° |
| 2026-04-26 01:12 | -36.76128 | -73.05665 | 61 ft | 1 kts | 210° |
| 2026-04-26 01:12 | -36.76132 | -73.05666 | 64 ft | 0 kts | 204° |
| 2026-04-26 01:13 | -36.76153 | -73.05678 | 59 ft | 12 kts | 204° |
| 2026-04-26 01:13 | -36.76475 | -73.05866 | 61 ft | 88 kts | 204° |
| 2026-04-26 01:13 | -36.77218 | -73.06295 | 58 ft | 145 kts | 205° |
| 2026-04-26 01:13 | -36.78188 | -73.06892 | 570 ft | 149 kts | 206° |
| 2026-04-26 01:14 | -36.79148 | -73.07300 | 1210 ft | 148 kts | 177° |
| 2026-04-26 01:14 | -36.80087 | -73.06800 | 1681 ft | 153 kts | 140° |
| 2026-04-26 01:14 | -36.80742 | -73.05789 | 2190 ft | 154 kts | 111° |
| 2026-04-26 01:14 | -36.80877 | -73.04467 | 2694 ft | 156 kts | 86° |
| 2026-04-26 01:15 | -36.80823 | -73.03107 | 3170 ft | 161 kts | 87° |
| 2026-04-26 01:15 | -36.80769 | -73.01622 | 3410 ft | 182 kts | 87° |
| 2026-04-26 01:15 | -36.80710 | -72.99946 | 3589 ft | 204 kts | 87° |
| 2026-04-26 01:15 | -36.80647 | -72.98058 | 3855 ft | 231 kts | 88° |
| 2026-04-26 01:16 | -36.80578 | -72.95946 | 4266 ft | 255 kts | 87° |
| 2026-04-26 01:16 | -36.80284 | -72.93736 | 4899 ft | 268 kts | 71° |
| 2026-04-26 01:16 | -36.79468 | -72.91629 | 5752 ft | 273 kts | 55° |
| 2026-04-26 01:16 | -36.78182 | -72.89876 | 6629 ft | 276 kts | 38° |
| 2026-04-26 01:17 | -36.76658 | -72.88396 | 7499 ft | 280 kts | 37° |
| 2026-04-26 01:17 | -36.75118 | -72.86896 | 8353 ft | 283 kts | 38° |
| 2026-04-26 01:17 | -36.73555 | -72.85369 | 9189 ft | 287 kts | 38° |
| 2026-04-26 01:17 | -36.71978 | -72.83826 | 9972 ft | 293 kts | 38° |
| 2026-04-26 01:18 | -36.70305 | -72.82193 | 10280 ft | 317 kts | 38° |
| 2026-04-26 01:18 | -36.68519 | -72.80448 | 10684 ft | 333 kts | 38° |
| 2026-04-26 01:18 | -36.66678 | -72.78650 | 11381 ft | 339 kts | 38° |
| 2026-04-26 01:18 | -36.64831 | -72.76846 | 12119 ft | 343 kts | 38° |
| 2026-04-26 01:19 | -36.62945 | -72.75008 | 12841 ft | 347 kts | 38° |
| 2026-04-26 01:19 | -36.61035 | -72.73145 | 13539 ft | 351 kts | 38° |
| 2026-04-26 01:19 | -36.59099 | -72.71257 | 14224 ft | 354 kts | 38° |
| 2026-04-26 01:19 | -36.57149 | -72.69356 | 14890 ft | 358 kts | 38° |
| 2026-04-26 01:20 | -36.55182 | -72.67439 | 15536 ft | 361 kts | 38° |
| 2026-04-26 01:20 | -36.53194 | -72.65504 | 16186 ft | 365 kts | 38° |
| 2026-04-26 01:20 | -36.51189 | -72.63555 | 16816 ft | 368 kts | 38° |
| 2026-04-26 01:20 | -36.49159 | -72.61587 | 17413 ft | 371 kts | 38° |
| 2026-04-26 01:21 | -36.47143 | -72.59633 | 17993 ft | 374 kts | 38° |
| 2026-04-26 01:21 | -36.45080 | -72.57632 | 18570 ft | 378 kts | 38° |
| 2026-04-26 01:21 | -36.43002 | -72.55615 | 19126 ft | 381 kts | 38° |
| 2026-04-26 01:21 | -36.40909 | -72.53587 | 19678 ft | 384 kts | 38° |
| 2026-04-26 01:22 | -36.38789 | -72.51536 | 20213 ft | 387 kts | 38° |
| 2026-04-26 01:22 | -36.36658 | -72.49476 | 20723 ft | 390 kts | 38° |
| 2026-04-26 01:22 | -36.34504 | -72.47398 | 21208 ft | 394 kts | 38° |
| 2026-04-26 01:22 | -36.32330 | -72.45303 | 21664 ft | 398 kts | 38° |
| 2026-04-26 01:23 | -36.30135 | -72.43188 | 22159 ft | 400 kts | 38° |
| 2026-04-26 01:23 | -36.27932 | -72.41064 | 22644 ft | 403 kts | 38° |
| 2026-04-26 01:23 | -36.25717 | -72.38928 | 23103 ft | 405 kts | 38° |
| 2026-04-26 01:23 | -36.23515 | -72.36804 | 23526 ft | 408 kts | 38° |
| 2026-04-26 01:24 | -36.21270 | -72.34640 | 23946 ft | 411 kts | 38° |
| 2026-04-26 01:24 | -36.19004 | -72.32460 | 24366 ft | 414 kts | 38° |
| 2026-04-26 01:24 | -36.16718 | -72.30267 | 24785 ft | 416 kts | 37° |
| 2026-04-26 01:24 | -36.14421 | -72.28067 | 25188 ft | 419 kts | 37° |
| 2026-04-26 01:25 | -36.12111 | -72.25859 | 25580 ft | 421 kts | 37° |
| 2026-04-26 01:25 | -36.09791 | -72.23638 | 25956 ft | 423 kts | 37° |
| 2026-04-26 01:25 | -36.07459 | -72.21403 | 26333 ft | 426 kts | 38° |
| 2026-04-26 01:25 | -36.05131 | -72.19208 | 26666 ft | 428 kts | 34° |
| 2026-04-26 01:26 | -36.02548 | -72.17346 | 27020 ft | 430 kts | 25° |
| 2026-04-26 01:26 | -36.00998 | -72.16463 | 27230 ft | 431 kts | 24° |
| 2026-04-26 01:26 | -35.98257 | -72.14912 | 27569 ft | 434 kts | 24° |
| 2026-04-26 01:26 | -35.95506 | -72.13360 | 27917 ft | 436 kts | 24° |
| 2026-04-26 01:27 | -35.93888 | -72.12447 | 28102 ft | 437 kts | 24° |
| 2026-04-26 01:27 | -35.91118 | -72.10884 | 28435 ft | 440 kts | 24° |
| 2026-04-26 01:27 | -35.88327 | -72.09306 | 28759 ft | 442 kts | 24° |
| 2026-04-26 01:27 | -35.85531 | -72.07725 | 29074 ft | 444 kts | 24° |
| 2026-04-26 01:28 | -35.82759 | -72.06156 | 29371 ft | 446 kts | 24° |
| 2026-04-26 01:28 | -35.79936 | -72.04558 | 29661 ft | 448 kts | 24° |
| 2026-04-26 01:28 | -35.77095 | -72.02953 | 29923 ft | 450 kts | 24° |
| 2026-04-26 01:28 | -35.74264 | -72.01359 | 30000 ft | 443 kts | 24° |
| 2026-04-26 01:29 | -35.71500 | -71.99807 | 30001 ft | 431 kts | 24° |
| 2026-04-26 01:29 | -35.68795 | -71.98288 | 30002 ft | 427 kts | 24° |
| 2026-04-26 01:29 | -35.63904 | -71.95543 | 30017 ft | 425 kts | 24° |
| 2026-04-26 01:30 | -35.58533 | -71.92529 | 30006 ft | 425 kts | 24° |
| 2026-04-26 01:30 | -35.53159 | -71.89514 | 30001 ft | 425 kts | 24° |
| 2026-04-26 01:31 | -35.47778 | -71.86507 | 30016 ft | 424 kts | 24° |
| 2026-04-26 01:31 | -35.42414 | -71.83508 | 30016 ft | 424 kts | 24° |
| 2026-04-26 01:32 | -35.37046 | -71.80510 | 30003 ft | 423 kts | 24° |
| 2026-04-26 01:32 | -35.31725 | -71.77548 | 30002 ft | 423 kts | 24° |
| 2026-04-26 01:33 | -35.26360 | -71.74567 | 30001 ft | 423 kts | 24° |
| 2026-04-26 01:33 | -35.21002 | -71.71590 | 30000 ft | 423 kts | 24° |
| 2026-04-26 01:34 | -35.15641 | -71.68616 | 29996 ft | 423 kts | 24° |
| 2026-04-26 01:34 | -35.10313 | -71.65672 | 29996 ft | 423 kts | 24° |
| 2026-04-26 01:35 | -35.04938 | -71.62703 | 29997 ft | 424 kts | 24° |
| 2026-04-26 01:35 | -34.99738 | -71.59836 | 29996 ft | 424 kts | 24° |
| 2026-04-26 01:36 | -34.94801 | -71.57108 | 29999 ft | 424 kts | 24° |
| 2026-04-26 01:37 | -34.86775 | -71.52687 | 29997 ft | 424 kts | 24° |
| 2026-04-26 01:37 | -34.81395 | -71.49732 | 29996 ft | 424 kts | 24° |
| 2026-04-26 01:38 | -34.76010 | -71.46770 | 29993 ft | 425 kts | 24° |
| 2026-04-26 01:38 | -34.70619 | -71.43816 | 30000 ft | 425 kts | 24° |
| 2026-04-26 01:39 | -34.65269 | -71.40899 | 30019 ft | 425 kts | 24° |
| 2026-04-26 01:39 | -34.59798 | -71.38020 | 30007 ft | 427 kts | 22° |
| 2026-04-26 01:39 | -34.57148 | -71.36736 | 30282 ft | 428 kts | 18° |
| 2026-04-26 01:40 | -34.54332 | -71.35408 | 30225 ft | 441 kts | 15° |
| 2026-04-26 01:40 | -34.51430 | -71.34047 | 30256 ft | 453 kts | 15° |
| 2026-04-26 01:40 | -34.48454 | -71.32635 | 30252 ft | 464 kts | 15° |
| 2026-04-26 01:41 | -34.42459 | -71.29713 | 30244 ft | 470 kts | 16° |
| 2026-04-26 01:41 | -34.36392 | -71.26697 | 30231 ft | 471 kts | 17° |
| 2026-04-26 01:42 | -34.30328 | -71.23693 | 30245 ft | 470 kts | 16° |
| 2026-04-26 01:42 | -34.24293 | -71.20740 | 29648 ft | 464 kts | 15° |
| 2026-04-26 01:42 | -34.21306 | -71.19284 | 29123 ft | 460 kts | 15° |
| 2026-04-26 01:43 | -34.18358 | -71.17846 | 28599 ft | 456 kts | 15° |
| 2026-04-26 01:43 | -34.15470 | -71.16437 | 28074 ft | 451 kts | 15° |
| 2026-04-26 01:43 | -34.12581 | -71.15030 | 27554 ft | 447 kts | 16° |
| 2026-04-26 01:43 | -34.09708 | -71.13633 | 27061 ft | 443 kts | 16° |
| 2026-04-26 01:44 | -34.06866 | -71.12251 | 26592 ft | 438 kts | 16° |
| 2026-04-26 01:44 | -34.04044 | -71.10884 | 26117 ft | 435 kts | 17° |
| 2026-04-26 01:44 | -34.01242 | -71.09525 | 25636 ft | 432 kts | 17° |
| 2026-04-26 01:44 | -33.98477 | -71.08179 | 25152 ft | 428 kts | 17° |
| 2026-04-26 01:45 | -33.95726 | -71.06838 | 24630 ft | 425 kts | 17° |
| 2026-04-26 01:45 | -33.92943 | -71.05491 | 23709 ft | 436 kts | 18° |
| 2026-04-26 01:45 | -33.90166 | -71.04150 | 23129 ft | 435 kts | 18° |
| 2026-04-26 01:45 | -33.87368 | -71.02796 | 22662 ft | 431 kts | 18° |
| 2026-04-26 01:46 | -33.84611 | -71.01460 | 22157 ft | 426 kts | 18° |
| 2026-04-26 01:46 | -33.81879 | -71.00136 | 21681 ft | 421 kts | 18° |
| 2026-04-26 01:46 | -33.79170 | -70.98824 | 21197 ft | 419 kts | 18° |
| 2026-04-26 01:46 | -33.76469 | -70.97518 | 20706 ft | 416 kts | 18° |
| 2026-04-26 01:47 | -33.73799 | -70.96228 | 20212 ft | 412 kts | 18° |
| 2026-04-26 01:47 | -33.71178 | -70.94961 | 19753 ft | 410 kts | 18° |
| 2026-04-26 01:47 | -33.68540 | -70.93692 | 19280 ft | 408 kts | 18° |
| 2026-04-26 01:47 | -33.65910 | -70.92433 | 18807 ft | 406 kts | 18° |
| 2026-04-26 01:48 | -33.63289 | -70.91178 | 18316 ft | 405 kts | 18° |
| 2026-04-26 01:48 | -33.60683 | -70.89927 | 17827 ft | 402 kts | 18° |
| 2026-04-26 01:48 | -33.58093 | -70.88682 | 17368 ft | 399 kts | 19° |
| 2026-04-26 01:48 | -33.55609 | -70.87232 | 16971 ft | 397 kts | 28° |
| 2026-04-26 01:49 | -33.53273 | -70.85516 | 16459 ft | 395 kts | 29° |
| 2026-04-26 01:49 | -33.50917 | -70.83777 | 15727 ft | 398 kts | 30° |
| 2026-04-26 01:49 | -33.48605 | -70.82070 | 14869 ft | 394 kts | 30° |
| 2026-04-26 01:49 | -33.46265 | -70.80346 | 14411 ft | 392 kts | 30° |
| 2026-04-26 01:50 | -33.43961 | -70.78649 | 14011 ft | 387 kts | 30° |
| 2026-04-26 01:50 | -33.41690 | -70.76975 | 13373 ft | 379 kts | 30° |
| 2026-04-26 01:50 | -33.39456 | -70.75331 | 12506 ft | 372 kts | 30° |
| 2026-04-26 01:50 | -33.37277 | -70.73733 | 11688 ft | 364 kts | 31° |
| 2026-04-26 01:51 | -33.35183 | -70.72200 | 11470 ft | 344 kts | 31° |
| 2026-04-26 01:51 | -33.33174 | -70.70736 | 11343 ft | 332 kts | 29° |
| 2026-04-26 01:51 | -33.31095 | -70.69691 | 11220 ft | 319 kts | 13° |
| 2026-04-26 01:51 | -33.28946 | -70.69346 | 11092 ft | 306 kts | 358° |
| 2026-04-26 01:52 | -33.26890 | -70.69545 | 10980 ft | 295 kts | 352° |
| 2026-04-26 01:52 | -33.24883 | -70.69794 | 10833 ft | 286 kts | 353° |
| 2026-04-26 01:52 | -33.22869 | -70.70037 | 10243 ft | 295 kts | 353° |
| 2026-04-26 01:52 | -33.20833 | -70.70296 | 9950 ft | 292 kts | 353° |
| 2026-04-26 01:53 | -33.18829 | -70.70564 | 9596 ft | 289 kts | 353° |
| 2026-04-26 01:53 | -33.16872 | -70.70996 | 9266 ft | 285 kts | 347° |
| 2026-04-26 01:53 | -33.14897 | -70.71251 | 8824 ft | 286 kts | 359° |
| 2026-04-26 01:53 | -33.12935 | -70.71281 | 8421 ft | 286 kts | 360° |
| 2026-04-26 01:54 | -33.10943 | -70.71295 | 8027 ft | 285 kts | 0° |
| 2026-04-26 01:54 | -33.08970 | -70.71438 | 7634 ft | 284 kts | 347° |
| 2026-04-26 01:54 | -33.07216 | -70.72427 | 7068 ft | 279 kts | 320° |
| 2026-04-26 01:54 | -33.05952 | -70.74160 | 6403 ft | 278 kts | 296° |
| 2026-04-26 01:55 | -33.05457 | -70.76335 | 5952 ft | 266 kts | 271° |
| 2026-04-26 01:55 | -33.05651 | -70.78443 | 5467 ft | 257 kts | 249° |
| 2026-04-26 01:55 | -33.06577 | -70.80264 | 5062 ft | 263 kts | 223° |
| 2026-04-26 01:55 | -33.08069 | -70.81466 | 4754 ft | 257 kts | 198° |
| 2026-04-26 01:56 | -33.09831 | -70.81835 | 4765 ft | 263 kts | 178° |
| 2026-04-26 01:56 | -33.11660 | -70.81741 | 4763 ft | 264 kts | 176° |
| 2026-04-26 01:56 | -33.13494 | -70.81638 | 4764 ft | 264 kts | 176° |
| 2026-04-26 01:56 | -33.15330 | -70.81540 | 4768 ft | 263 kts | 177° |
| 2026-04-26 01:57 | -33.17139 | -70.81444 | 4852 ft | 261 kts | 177° |
| 2026-04-26 01:57 | -33.18856 | -70.81353 | 4841 ft | 232 kts | 177° |
| 2026-04-26 01:57 | -33.20372 | -70.81272 | 4759 ft | 208 kts | 176° |
| 2026-04-26 01:57 | -33.21772 | -70.81198 | 4557 ft | 193 kts | 176° |
| 2026-04-26 01:58 | -33.23054 | -70.81129 | 4298 ft | 181 kts | 176° |
| 2026-04-26 01:58 | -33.24264 | -70.81064 | 4076 ft | 168 kts | 176° |
| 2026-04-26 01:58 | -33.25396 | -70.81003 | 3854 ft | 159 kts | 176° |
| 2026-04-26 01:58 | -33.26480 | -70.80915 | 3601 ft | 153 kts | 175° |
| 2026-04-26 01:59 | -33.27533 | -70.80851 | 3386 ft | 150 kts | 177° |
| 2026-04-26 01:59 | -33.28571 | -70.80807 | 3214 ft | 149 kts | 178° |
| 2026-04-26 01:59 | -33.29599 | -70.80768 | 3079 ft | 148 kts | 176° |
| 2026-04-26 01:59 | -33.30606 | -70.80711 | 2925 ft | 142 kts | 178° |
| 2026-04-26 02:00 | -33.31577 | -70.80674 | 2687 ft | 141 kts | 178° |
| 2026-04-26 02:00 | -33.32552 | -70.80620 | 2502 ft | 140 kts | 177° |
| 2026-04-26 02:00 | -33.33528 | -70.80576 | 2353 ft | 140 kts | 178° |
| 2026-04-26 02:00 | -33.34497 | -70.80510 | 2152 ft | 139 kts | 178° |
| 2026-04-26 02:01 | -33.35461 | -70.80448 | 1956 ft | 138 kts | 179° |
| 2026-04-26 02:01 | -33.36420 | -70.80406 | 1775 ft | 139 kts | 178° |
| 2026-04-26 02:01 | -33.37383 | -70.80357 | 1608 ft | 138 kts | 178° |
| 2026-04-26 02:01 | -33.38241 | -70.80316 | 1570 ft | 102 kts | 178° |
| 2026-04-26 02:02 | -33.38776 | -70.80289 | 1572 ft | 51 kts | 177° |
| 2026-04-26 02:02 | -33.39101 | -70.80271 | 1569 ft | 37 kts | 176° |
| 2026-04-26 02:02 | -33.39267 | -70.80235 | 1568 ft | 23 kts | 157° |
| 2026-04-26 02:02 | -33.39376 | -70.80164 | 1565 ft | 16 kts | 149° |
| 2026-04-26 02:03 | -33.39474 | -70.80088 | 1562 ft | 16 kts | 146° |
| 2026-04-26 02:03 | -33.39525 | -70.80027 | 1561 ft | 10 kts | 119° |
| 2026-04-26 02:03 | -33.39533 | -70.79953 | 1559 ft | 9 kts | 79° |
| 2026-04-26 02:03 | -33.39524 | -70.79887 | 1559 ft | 8 kts | 82° |
| 2026-04-26 02:04 | -33.39519 | -70.79829 | 1559 ft | 7 kts | 88° |
| 2026-04-26 02:04 | -33.39523 | -70.79779 | 1559 ft | 5 kts | 94° |
| 2026-04-26 02:04 | -33.39524 | -70.79738 | 1560 ft | 5 kts | 88° |
| 2026-04-26 02:04 | -33.39519 | -70.79658 | 1560 ft | 11 kts | 84° |
| 2026-04-26 02:05 | -33.39515 | -70.79570 | 1560 ft | 12 kts | 87° |
| 2026-04-26 02:05 | -33.39511 | -70.79469 | 1560 ft | 11 kts | 88° |
| 2026-04-26 02:05 | -33.39508 | -70.79381 | 1561 ft | 10 kts | 87° |
| 2026-04-26 02:05 | -33.39506 | -70.79333 | 1561 ft | 0 kts | 87° |
| 2026-04-26 02:06 | -33.39511 | -70.79303 | 1561 ft | 2 kts | 139° |
| 2026-04-26 02:06 | -33.39537 | -70.79296 | 1561 ft | 6 kts | 173° |
| 2026-04-26 02:06 | -33.39576 | -70.79294 | 1561 ft | 5 kts | 178° |
| 2026-04-26 02:06 | -33.39596 | -70.79293 | 1561 ft | 0 kts | 177° |